createdAt,value
2022-10-06T00:02:44.910Z,99115.75
2022-10-06T00:07:49.251Z,99124.38
2022-10-06T00:12:53.579Z,99133.06
2022-10-06T00:17:59.837Z,99130.47
2022-10-06T00:23:03.471Z,99140.81
2022-10-06T00:28:07.604Z,99130.44
2022-10-06T00:33:16.406Z,99132.19
2022-10-06T00:38:20.598Z,99138.22
2022-10-06T00:43:46.009Z,99133.03
2022-10-06T00:48:55.047Z,99132.19
2022-10-06T00:53:59.013Z,99130.44
2022-10-06T00:59:03.032Z,99137.38
2022-10-06T01:04:13.171Z,99136.50
2022-10-06T01:09:19.056Z,99133.06
2022-10-06T01:14:24.713Z,99140.84
2022-10-06T01:19:41.853Z,99135.63
2022-10-06T01:24:50.757Z,99131.31
2022-10-06T01:29:56.506Z,99118.34
2022-10-06T01:34:59.814Z,99126.97
2022-10-06T01:40:05.801Z,99110.59
2022-10-06T01:45:09.761Z,99127.88
2022-10-06T01:50:13.832Z,99127.00
2022-10-06T01:55:20.161Z,99129.59
2022-10-06T02:00:25.058Z,99126.16
2022-10-06T02:05:30.029Z,99119.22
2022-10-06T02:10:35.489Z,99128.72
2022-10-06T02:15:39.703Z,99120.06
2022-10-06T02:20:44.517Z,99120.09
2022-10-06T02:25:49.748Z,99132.16
2022-10-06T02:30:55.043Z,99133.06
2022-10-06T02:35:59.475Z,99136.50
2022-10-06T02:41:05.472Z,99136.50
2022-10-06T02:46:13.233Z,99141.69
2022-10-06T02:51:20.169Z,99137.38
2022-10-06T02:56:27.538Z,99139.09
2022-10-06T03:01:32.026Z,99146.00
2022-10-06T03:06:36.090Z,99145.16
2022-10-06T03:11:43.428Z,99140.81
2022-10-06T03:16:47.490Z,99146.88
2022-10-06T03:21:51.696Z,99141.69
2022-10-06T03:26:57.130Z,99130.47
2022-10-06T03:32:01.655Z,99146.88
2022-10-06T03:37:05.788Z,99148.63
2022-10-06T03:42:11.257Z,99157.25
2022-10-06T03:47:17.498Z,99162.44
2022-10-06T03:52:25.743Z,99166.78
2022-10-06T03:57:31.502Z,99162.44
2022-10-06T04:02:34.800Z,99152.91
2022-10-06T04:07:38.848Z,99150.31
2022-10-06T04:12:43.574Z,99147.72
2022-10-06T04:17:47.594Z,99134.78
2022-10-06T04:22:50.916Z,99154.66
2022-10-06T04:27:56.375Z,99157.22
2022-10-06T04:32:59.820Z,99160.69
2022-10-06T04:38:03.863Z,99166.75
2022-10-06T04:43:08.711Z,99158.94
2022-10-06T04:48:12.637Z,99165.91
2022-10-06T04:53:16.008Z,99159.81
2022-10-06T04:58:21.484Z,99169.31
2022-10-06T05:03:24.890Z,99177.06
2022-10-06T05:08:29.192Z,99171.84
2022-10-06T05:13:34.113Z,99174.44
2022-10-06T05:18:38.645Z,99166.63
2022-10-06T05:23:43.170Z,99170.06
2022-10-06T05:28:48.668Z,99170.88
2022-10-06T05:33:52.203Z,99183.00
2022-10-06T05:38:56.949Z,99176.88
2022-10-06T05:44:01.451Z,99173.34
2022-10-06T05:49:07.948Z,99177.59
2022-10-06T05:54:11.314Z,99182.69
2022-10-06T05:59:16.940Z,99188.50
2022-10-06T06:04:20.489Z,99192.00
2022-10-06T06:09:24.735Z,99185.16
2022-10-06T06:14:43.390Z,99198.84
2022-10-06T06:19:47.799Z,99195.38
2022-10-06T06:24:51.386Z,99188.34
2022-10-06T06:29:58.202Z,99186.38
2022-10-06T06:35:01.539Z,99177.91
2022-10-06T06:40:08.407Z,99174.09
2022-10-06T06:45:14.232Z,99174.97
2022-10-06T06:50:19.554Z,99186.25
2022-10-06T06:55:23.632Z,99185.56
2022-10-06T07:00:33.827Z,99186.50
2022-10-06T07:05:41.075Z,99183.06
2022-10-06T07:10:46.163Z,99189.13
2022-10-06T07:16:09.853Z,99187.47
2022-10-06T07:21:32.720Z,99183.88
2022-10-06T07:26:36.818Z,99183.84
2022-10-06T07:31:44.762Z,99174.22
2022-10-06T07:36:53.550Z,99169.88
2022-10-06T07:41:57.593Z,99172.56
2022-10-06T07:47:03.283Z,99161.25
2022-10-06T07:52:07.403Z,99161.25
2022-10-06T07:57:11.508Z,99151.00
2022-10-06T08:02:16.259Z,99160.94
2022-10-06T08:07:20.111Z,99159.28
2022-10-06T08:12:37.843Z,99156.53
2022-10-06T08:17:44.388Z,99159.91
2022-10-06T08:22:49.327Z,99167.00
2022-10-06T08:27:53.727Z,99173.06
2022-10-06T08:32:59.083Z,99173.97
2022-10-06T08:38:03.111Z,99177.47
2022-10-06T08:43:18.011Z,99180.88
2022-10-06T08:48:30.055Z,99179.25
2022-10-06T08:53:39.599Z,99180.09
2022-10-06T08:58:54.338Z,99176.56
2022-10-06T09:04:02.394Z,99163.63
2022-10-06T09:09:16.020Z,99175.78
2022-10-06T09:14:22.741Z,99161.88
2022-10-06T09:19:39.580Z,99150.69
2022-10-06T09:24:47.164Z,99161.00
2022-10-06T09:29:52.765Z,99153.91
2022-10-06T09:34:59.949Z,99161.53
2022-10-06T09:40:04.102Z,99160.53
2022-10-06T09:45:25.475Z,99157.88
2022-10-06T09:50:31.486Z,99163.63
2022-10-06T09:55:45.481Z,99158.06
2022-10-06T10:00:54.527Z,99149.34
2022-10-06T10:06:03.087Z,99141.59
2022-10-06T10:11:33.362Z,99142.19
2022-10-06T10:16:37.993Z,99144.88
2022-10-06T10:21:46.741Z,99150.81
2022-10-06T10:26:58.747Z,99163.19
2022-10-06T10:32:13.237Z,99168.94
2022-10-06T10:37:22.746Z,99174.28
2022-10-06T10:42:32.554Z,99182.09
2022-10-06T10:47:39.848Z,99172.56
2022-10-06T10:52:47.580Z,99169.03
2022-10-06T10:57:53.762Z,99173.34
2022-10-06T11:02:59.890Z,99171.72
2022-10-06T11:08:13.139Z,99184.72
2022-10-06T11:13:24.741Z,99168.09
2022-10-06T11:18:44.937Z,99166.78
2022-10-06T11:23:55.383Z,99160.59
2022-10-06T11:29:05.607Z,99155.28
2022-10-06T11:34:11.290Z,99147.72
2022-10-06T11:39:26.607Z,99142.56
2022-10-06T11:44:37.149Z,99134.56
2022-10-06T11:49:53.046Z,99129.47
2022-10-06T11:55:08.676Z,99138.06
2022-10-06T12:00:45.228Z,99132.50
2022-10-06T12:05:56.283Z,99124.16
2022-10-06T12:11:01.661Z,99115.03
2022-10-06T12:21:55.001Z,99125.69
2022-10-06T12:27:25.738Z,99110.44
2022-10-06T12:32:46.599Z,99113.25
2022-10-06T12:37:54.455Z,99091.81
2022-10-06T12:43:58.588Z,99105.25
2022-10-06T12:49:14.297Z,99115.16
2022-10-06T12:54:21.673Z,99121.31
2022-10-06T12:59:28.775Z,99129.97
2022-10-06T13:04:38.278Z,99125.50
2022-10-06T13:09:42.992Z,99119.81
2022-10-06T13:14:48.854Z,99115.31
2022-10-06T13:19:54.593Z,99116.44
2022-10-06T13:25:01.569Z,99110.28
2022-10-06T13:30:20.355Z,99105.97
2022-10-06T13:35:27.642Z,99108.06
2022-10-06T13:40:43.974Z,99116.72
2022-10-06T13:45:50.669Z,99114.97
2022-10-06T13:50:55.123Z,99105.44
2022-10-06T13:56:00.124Z,99106.22
2022-10-06T14:01:05.703Z,99103.75
2022-10-06T14:06:16.610Z,99103.78
2022-10-06T14:11:25.589Z,99102.13
2022-10-06T14:16:33.069Z,99104.00
2022-10-06T14:21:42.666Z,99102.28
2022-10-06T14:26:47.717Z,99100.66
2022-10-06T14:31:53.208Z,99112.78
2022-10-06T14:36:58.094Z,99119.59
2022-10-06T14:42:02.107Z,99114.41
2022-10-06T14:47:10.059Z,99115.59
2022-10-06T14:52:14.661Z,99118.22
2022-10-06T14:57:18.745Z,99118.09
2022-10-06T15:02:23.669Z,99102.41
2022-10-06T15:07:45.636Z,99104.47
2022-10-06T15:12:49.471Z,99103.72
2022-10-06T15:17:55.464Z,99105.44
2022-10-06T15:22:58.734Z,99100.25
2022-10-06T15:28:22.901Z,99100.25
2022-10-06T15:33:30.649Z,99101.25
2022-10-06T15:38:38.497Z,99106.28
2022-10-06T15:43:57.474Z,99101.22
2022-10-06T15:49:04.481Z,99097.75
2022-10-06T15:54:08.377Z,99087.31
2022-10-06T15:59:12.662Z,99083.81
2022-10-06T16:04:26.188Z,99096.03
2022-10-06T16:09:32.175Z,99098.44
2022-10-06T16:14:36.447Z,99108.00
2022-10-06T16:19:42.141Z,99097.59
2022-10-06T16:24:45.647Z,99104.56
2022-10-06T16:29:49.981Z,99097.69
2022-10-06T16:34:54.790Z,99103.66
2022-10-06T16:39:59.229Z,99100.94
2022-10-06T16:45:02.873Z,99101.91
2022-10-06T16:50:10.348Z,99089.78
2022-10-06T16:55:15.060Z,99101.00
2022-10-06T17:00:19.383Z,99091.31
2022-10-06T17:05:25.203Z,99083.00
2022-10-06T17:10:29.591Z,99083.03
2022-10-06T17:15:33.734Z,99071.75
2022-10-06T17:20:39.872Z,99071.63
2022-10-06T17:25:44.072Z,99070.78
2022-10-06T17:30:53.986Z,99067.25
2022-10-06T17:36:03.779Z,99066.31
2022-10-06T17:41:10.560Z,99066.31
2022-10-06T17:46:19.692Z,99054.09
2022-10-06T17:51:27.005Z,99039.19
2022-10-06T17:56:34.628Z,99032.41
2022-10-06T18:01:38.971Z,99024.59
2022-10-06T18:06:46.296Z,99012.59
2022-10-06T18:11:56.673Z,99011.09
2022-10-06T18:17:03.220Z,99021.53
2022-10-06T18:22:12.514Z,99027.41
2022-10-06T18:27:16.690Z,99024.13
2022-10-06T18:37:46.281Z,99017.97
2022-10-06T18:42:50.098Z,99005.91
2022-10-06T18:48:11.804Z,99003.28
2022-10-06T18:53:16.735Z,99010.13
2022-10-06T18:58:21.269Z,99005.69
2022-10-06T19:03:28.487Z,99008.22
2022-10-06T19:08:34.411Z,99005.47
2022-10-06T19:13:38.420Z,99022.25
2022-10-06T19:18:42.827Z,99022.25
2022-10-06T19:23:47.656Z,99006.47
2022-10-06T19:28:54.497Z,99007.41
2022-10-06T19:34:02.245Z,99004.03
2022-10-06T19:39:11.367Z,99002.03
2022-10-06T19:44:14.834Z,98997.75
2022-10-06T19:49:19.711Z,98998.56
2022-10-06T19:54:24.453Z,99004.59
2022-10-06T19:59:28.466Z,98989.81
2022-10-06T20:04:32.231Z,98987.84
2022-10-06T20:09:37.999Z,98991.41
2022-10-06T20:14:41.344Z,98977.59
2022-10-06T20:19:46.197Z,98990.50
2022-10-06T20:24:51.572Z,98987.81
2022-10-06T20:29:55.959Z,98989.63
2022-10-06T20:34:59.405Z,99000.06
2022-10-06T20:40:22.209Z,99002.66
2022-10-06T20:45:26.339Z,98993.94
2022-10-06T20:50:32.428Z,98986.06
2022-10-06T20:55:37.907Z,98989.56
2022-10-06T21:00:41.991Z,98990.53
2022-10-06T21:05:50.843Z,99001.66
2022-10-06T21:11:00.572Z,98999.06
2022-10-06T21:16:05.544Z,98999.16
2022-10-06T21:21:09.626Z,99010.56
2022-10-06T21:26:18.089Z,98993.13
2022-10-06T21:31:24.059Z,99011.41
2022-10-06T21:36:30.020Z,99014.03
2022-10-06T21:41:39.666Z,99014.84
2022-10-06T21:46:47.458Z,99015.63
2022-10-06T21:51:53.967Z,99028.56
2022-10-06T21:56:59.951Z,99032.75
2022-10-06T22:02:04.061Z,99026.63
2022-10-06T22:07:08.187Z,99034.41
2022-10-06T22:12:14.237Z,99035.25
2022-10-06T22:17:17.936Z,99037.00
2022-10-06T22:22:21.479Z,99036.22
2022-10-06T22:27:26.305Z,99044.31
2022-10-06T22:32:29.681Z,99051.50
2022-10-06T22:37:33.000Z,99048.13
2022-10-06T22:42:37.659Z,99053.53
2022-10-06T22:47:40.779Z,99055.44
2022-10-06T22:52:44.067Z,99056.44
2022-10-06T22:57:48.757Z,99053.72
2022-10-06T23:02:51.845Z,99055.56
2022-10-06T23:07:55.233Z,99051.50
2022-10-06T23:13:00.767Z,99061.91
2022-10-06T23:18:04.573Z,99059.41
2022-10-06T23:23:07.908Z,99071.59
2022-10-06T23:28:14.760Z,99066.47
2022-10-06T23:33:18.129Z,99078.75
2022-10-06T23:38:21.396Z,99076.94
2022-10-06T23:43:26.153Z,99073.31
2022-10-06T23:48:29.884Z,99085.31
2022-10-06T23:53:33.690Z,99089.81
2022-10-06T23:58:47.348Z,99091.66
